sensor_id;sensor_type;location;lat;lon;timestamp;pressure;altitude;pressure_sealevel;temperature;humidity
5905;BME280;2978;42.012;24.880;2023-04-09T00:00:40;99133.81;;;9.17;95.75
5905;BME280;2978;42.012;24.880;2023-04-09T00:03:06;99126.06;;;9.13;96.53
5905;BME280;2978;42.012;24.880;2023-04-09T00:05:31;99127.75;;;9.15;96.68
5905;BME280;2978;42.012;24.880;2023-04-09T00:07:57;99133.13;;;9.04;96.39
5905;BME280;2978;42.012;24.880;2023-04-09T00:10:22;99129.28;;;9.05;96.91
5905;BME280;2978;42.012;24.880;2023-04-09T00:12:47;99139.19;;;9.06;97.45
5905;BME280;2978;42.012;24.880;2023-04-09T00:15:13;99141.47;;;9.15;97.38
5905;BME280;2978;42.012;24.880;2023-04-09T00:17:38;99139.72;;;9.08;96.78
5905;BME280;2978;42.012;24.880;2023-04-09T00:20:05;99137.13;;;8.97;97.63
5905;BME280;2978;42.012;24.880;2023-04-09T00:22:32;99146.69;;;8.94;98.00
5905;BME280;2978;42.012;24.880;2023-04-09T00:24:57;99145.09;;;8.98;97.54
5905;BME280;2978;42.012;24.880;2023-04-09T00:27:22;99134.00;;;8.88;97.92
5905;BME280;2978;42.012;24.880;2023-04-09T00:29:48;99142.94;;;9.00;97.98
5905;BME280;2978;42.012;24.880;2023-04-09T00:32:13;99139.09;;;9.01;98.06
5905;BME280;2978;42.012;24.880;2023-04-09T00:34:39;99136.88;;;8.98;97.53
5905;BME280;2978;42.012;24.880;2023-04-09T00:37:04;99137.81;;;8.87;98.11
5905;BME280;2978;42.012;24.880;2023-04-09T00:39:30;99148.88;;;8.92;98.85
5905;BME280;2978;42.012;24.880;2023-04-09T00:41:56;99146.19;;;8.97;98.75
5905;BME280;2978;42.012;24.880;2023-04-09T00:44:23;99146.06;;;9.09;98.07
5905;BME280;2978;42.012;24.880;2023-04-09T00:46:48;99143.78;;;9.28;97.76
5905;BME280;2978;42.012;24.880;2023-04-09T00:49:14;99144.09;;;9.31;96.61
5905;BME280;2978;42.012;24.880;2023-04-09T00:51:40;99151.53;;;9.31;96.08
5905;BME280;2978;42.012;24.880;2023-04-09T00:54:06;99147.75;;;9.37;95.86
5905;BME280;2978;42.012;24.880;2023-04-09T00:56:32;99148.38;;;9.44;95.20
5905;BME280;2978;42.012;24.880;2023-04-09T00:58:58;99148.47;;;9.54;94.74
5905;BME280;2978;42.012;24.880;2023-04-09T01:01:23;99146.34;;;9.61;93.98
5905;BME280;2978;42.012;24.880;2023-04-09T01:03:49;99147.28;;;9.71;93.55
5905;BME280;2978;42.012;24.880;2023-04-09T01:11:34;99153.06;;;9.22;94.67
5905;BME280;2978;42.012;24.880;2023-04-09T01:14:20;99142.09;;;9.22;95.46
5905;BME280;2978;42.012;24.880;2023-04-09T01:16:52;99143.72;;;9.23;95.62
5905;BME280;2978;42.012;24.880;2023-04-09T01:19:38;99147.53;;;9.17;95.51
5905;BME280;2978;42.012;24.880;2023-04-09T01:22:23;99147.97;;;9.08;95.52
5905;BME280;2978;42.012;24.880;2023-04-09T01:25:03;99150.75;;;9.13;95.85
5905;BME280;2978;42.012;24.880;2023-04-09T01:27:46;99144.78;;;9.17;95.83
5905;BME280;2978;42.012;24.880;2023-04-09T01:30:18;99151.22;;;9.27;95.23
5905;BME280;2978;42.012;24.880;2023-04-09T01:32:45;99154.03;;;9.10;95.31
5905;BME280;2978;42.012;24.880;2023-04-09T01:35:11;99142.09;;;9.00;95.58
5905;BME280;2978;42.012;24.880;2023-04-09T01:37:37;99145.47;;;9.07;95.95
5905;BME280;2978;42.012;24.880;2023-04-09T01:40:04;99142.94;;;9.22;95.48
5905;BME280;2978;42.012;24.880;2023-04-09T01:42:30;99148.16;;;9.24;94.92
5905;BME280;2978;42.012;24.880;2023-04-09T01:44:57;99148.22;;;9.29;94.83
5905;BME280;2978;42.012;24.880;2023-04-09T01:47:25;99149.38;;;9.33;94.86
5905;BME280;2978;42.012;24.880;2023-04-09T01:49:51;99159.66;;;9.47;94.08
5905;BME280;2978;42.012;24.880;2023-04-09T01:52:17;99149.03;;;9.56;93.28
5905;BME280;2978;42.012;24.880;2023-04-09T01:54:42;99158.25;;;9.71;92.39
5905;BME280;2978;42.012;24.880;2023-04-09T01:57:08;99167.72;;;9.85;91.89
5905;BME280;2978;42.012;24.880;2023-04-09T01:59:33;99166.84;;;9.80;91.28
5905;BME280;2978;42.012;24.880;2023-04-09T02:02:00;99162.19;;;9.80;90.79
5905;BME280;2978;42.012;24.880;2023-04-09T02:04:36;99165.19;;;9.79;90.94
5905;BME280;2978;42.012;24.880;2023-04-09T02:09:52;99157.41;;;9.66;91.55
5905;BME280;2978;42.012;24.880;2023-04-09T02:12:18;99164.44;;;9.57;91.88
5905;BME280;2978;42.012;24.880;2023-04-09T02:14:47;99158.38;;;9.55;92.58
5905;BME280;2978;42.012;24.880;2023-04-09T02:17:15;99165.63;;;9.66;92.37
5905;BME280;2978;42.012;24.880;2023-04-09T02:19:45;99168.66;;;9.69;91.58
5905;BME280;2978;42.012;24.880;2023-04-09T02:22:11;99167.91;;;9.74;91.37
5905;BME280;2978;42.012;24.880;2023-04-09T02:24:37;99157.94;;;9.68;91.25
5905;BME280;2978;42.012;24.880;2023-04-09T02:27:05;99167.50;;;9.60;92.13
5905;BME280;2978;42.012;24.880;2023-04-09T02:29:30;99168.06;;;9.62;92.51
5905;BME280;2978;42.012;24.880;2023-04-09T02:31:56;99162.81;;;9.61;92.15
5905;BME280;2978;42.012;24.880;2023-04-09T02:34:22;99157.75;;;9.48;92.56
5905;BME280;2978;42.012;24.880;2023-04-09T02:36:48;99162.66;;;9.46;92.87
5905;BME280;2978;42.012;24.880;2023-04-09T02:39:13;99172.84;;;9.50;93.39
5905;BME280;2978;42.012;24.880;2023-04-09T02:41:39;99171.22;;;9.49;93.47
5905;BME280;2978;42.012;24.880;2023-04-09T02:44:04;99162.50;;;9.31;94.15
5905;BME280;2978;42.012;24.880;2023-04-09T02:46:30;99167.16;;;9.30;94.76
5905;BME280;2978;42.012;24.880;2023-04-09T02:48:55;99167.63;;;9.00;95.57
5905;BME280;2978;42.012;24.880;2023-04-09T02:51:21;99173.34;;;9.21;96.33
5905;BME280;2978;42.012;24.880;2023-04-09T02:53:46;99168.00;;;9.09;96.19
5905;BME280;2978;42.012;24.880;2023-04-09T02:56:11;99170.09;;;9.24;96.48
5905;BME280;2978;42.012;24.880;2023-04-09T02:58:37;99168.31;;;9.34;95.83
5905;BME280;2978;42.012;24.880;2023-04-09T03:01:02;99171.84;;;9.35;95.21
5905;BME280;2978;42.012;24.880;2023-04-09T03:03:28;99181.28;;;9.44;94.84
5905;BME280;2978;42.012;24.880;2023-04-09T03:05:55;99168.78;;;9.53;94.12
5905;BME280;2978;42.012;24.880;2023-04-09T03:08:20;99169.63;;;9.53;93.82
5905;BME280;2978;42.012;24.880;2023-04-09T03:10:46;99168.31;;;9.13;94.77
5905;BME280;2978;42.012;24.880;2023-04-09T03:13:11;99175.66;;;9.29;95.72
5905;BME280;2978;42.012;24.880;2023-04-09T03:15:36;99171.06;;;9.34;95.45
5905;BME280;2978;42.012;24.880;2023-04-09T03:18:02;99168.94;;;9.41;95.25
5905;BME280;2978;42.012;24.880;2023-04-09T03:20:27;99160.81;;;9.51;94.51
5905;BME280;2978;42.012;24.880;2023-04-09T03:22:53;99173.63;;;9.46;93.80
5905;BME280;2978;42.012;24.880;2023-04-09T03:25:18;99166.41;;;9.40;94.24
5905;BME280;2978;42.012;24.880;2023-04-09T03:27:45;99170.38;;;9.49;94.29
5905;BME280;2978;42.012;24.880;2023-04-09T03:30:11;99170.53;;;9.37;93.51
5905;BME280;2978;42.012;24.880;2023-04-09T03:32:36;99172.16;;;9.38;93.34
5905;BME280;2978;42.012;24.880;2023-04-09T03:35:02;99183.41;;;9.37;93.15
5905;BME280;2978;42.012;24.880;2023-04-09T03:37:27;99186.50;;;9.19;93.16
5905;BME280;2978;42.012;24.880;2023-04-09T03:39:52;99181.75;;;9.14;94.04
5905;BME280;2978;42.012;24.880;2023-04-09T03:42:18;99184.31;;;9.21;94.13
5905;BME280;2978;42.012;24.880;2023-04-09T03:44:43;99176.66;;;9.23;93.85
5905;BME280;2978;42.012;24.880;2023-04-09T03:47:08;99177.69;;;9.17;93.94
5905;BME280;2978;42.012;24.880;2023-04-09T03:49:35;99180.75;;;9.20;94.15
5905;BME280;2978;42.012;24.880;2023-04-09T03:52:00;99181.50;;;9.16;94.38
5905;BME280;2978;42.012;24.880;2023-04-09T03:54:29;99180.38;;;9.12;94.64
5905;BME280;2978;42.012;24.880;2023-04-09T03:56:55;99182.22;;;9.06;94.95
5905;BME280;2978;42.012;24.880;2023-04-09T03:59:21;99188.97;;;8.98;95.12
5905;BME280;2978;42.012;24.880;2023-04-09T04:01:47;99187.72;;;9.06;95.59
5905;BME280;2978;42.012;24.880;2023-04-09T04:04:13;99189.16;;;9.13;94.93
5905;BME280;2978;42.012;24.880;2023-04-09T04:06:38;99188.16;;;9.20;94.76
5905;BME280;2978;42.012;24.880;2023-04-09T04:09:03;99193.16;;;9.28;94.29
5905;BME280;2978;42.012;24.880;2023-04-09T04:11:29;99199.59;;;9.38;93.68
5905;BME280;2978;42.012;24.880;2023-04-09T04:13:55;99205.56;;;9.52;93.74
5905;BME280;2978;42.012;24.880;2023-04-09T04:16:21;99204.97;;;9.50;92.97
5905;BME280;2978;42.012;24.880;2023-04-09T04:18:46;99201.97;;;9.51;92.76
5905;BME280;2978;42.012;24.880;2023-04-09T04:21:13;99198.44;;;9.56;92.71
5905;BME280;2978;42.012;24.880;2023-04-09T04:23:38;99193.31;;;9.64;92.30
5905;BME280;2978;42.012;24.880;2023-04-09T04:26:08;99212.47;;;9.59;91.46
5905;BME280;2978;42.012;24.880;2023-04-09T04:28:37;99198.97;;;9.53;92.01
5905;BME280;2978;42.012;24.880;2023-04-09T04:31:07;99213.84;;;9.35;92.69
5905;BME280;2978;42.012;24.880;2023-04-09T04:33:33;99206.47;;;9.36;93.24
5905;BME280;2978;42.012;24.880;2023-04-09T04:36:09;99211.22;;;9.45;92.94
5905;BME280;2978;42.012;24.880;2023-04-09T04:38:36;99217.72;;;9.61;91.93
5905;BME280;2978;42.012;24.880;2023-04-09T04:41:01;99208.25;;;9.73;91.09
5905;BME280;2978;42.012;24.880;2023-04-09T04:43:27;99213.53;;;9.80;90.64
5905;BME280;2978;42.012;24.880;2023-04-09T04:45:53;99208.09;;;9.85;90.39
5905;BME280;2978;42.012;24.880;2023-04-09T04:48:19;99206.97;;;9.81;90.34
5905;BME280;2978;42.012;24.880;2023-04-09T04:50:44;99211.78;;;9.95;90.01
5905;BME280;2978;42.012;24.880;2023-04-09T04:53:10;99210.94;;;9.95;90.35
5905;BME280;2978;42.012;24.880;2023-04-09T04:55:35;99217.09;;;10.07;89.58
5905;BME280;2978;42.012;24.880;2023-04-09T04:58:01;99206.72;;;10.09;89.14
5905;BME280;2978;42.012;24.880;2023-04-09T05:00:27;99204.66;;;10.26;88.65
5905;BME280;2978;42.012;24.880;2023-04-09T05:02:52;99207.16;;;10.28;88.20
5905;BME280;2978;42.012;24.880;2023-04-09T05:05:18;99207.50;;;10.36;87.27
5905;BME280;2978;42.012;24.880;2023-04-09T05:07:43;99210.78;;;10.33;87.26
5905;BME280;2978;42.012;24.880;2023-04-09T05:10:09;99211.56;;;10.29;86.92
5905;BME280;2978;42.012;24.880;2023-04-09T05:12:34;99210.53;;;10.40;87.42
5905;BME280;2978;42.012;24.880;2023-04-09T05:15:00;99218.63;;;10.51;86.64
5905;BME280;2978;42.012;24.880;2023-04-09T05:17:26;99217.22;;;10.49;86.05
5905;BME280;2978;42.012;24.880;2023-04-09T05:19:52;99221.31;;;10.46;86.25
5905;BME280;2978;42.012;24.880;2023-04-09T05:22:18;99218.00;;;10.44;86.34
5905;BME280;2978;42.012;24.880;2023-04-09T05:24:43;99220.25;;;10.52;86.74
5905;BME280;2978;42.012;24.880;2023-04-09T05:27:09;99222.75;;;10.54;86.90
5905;BME280;2978;42.012;24.880;2023-04-09T05:29:34;99224.31;;;10.45;87.26
5905;BME280;2978;42.012;24.880;2023-04-09T05:32:00;99225.44;;;10.44;87.55
5905;BME280;2978;42.012;24.880;2023-04-09T05:34:25;99214.47;;;10.49;87.61
5905;BME280;2978;42.012;24.880;2023-04-09T05:36:52;99223.63;;;10.59;86.93
5905;BME280;2978;42.012;24.880;2023-04-09T05:39:17;99226.59;;;10.89;86.00
5905;BME280;2978;42.012;24.880;2023-04-09T05:41:43;99231.59;;;11.02;84.45
5905;BME280;2978;42.012;24.880;2023-04-09T05:44:10;99219.44;;;10.93;84.54
5905;BME280;2978;42.012;24.880;2023-04-09T05:46:35;99219.41;;;10.88;85.05
5905;BME280;2978;42.012;24.880;2023-04-09T05:49:01;99230.91;;;10.80;85.11
5905;BME280;2978;42.012;24.880;2023-04-09T05:51:26;99230.34;;;10.78;85.24
5905;BME280;2978;42.012;24.880;2023-04-09T05:53:52;99229.72;;;10.66;85.47
5905;BME280;2978;42.012;24.880;2023-04-09T05:56:17;99230.78;;;10.65;86.02
5905;BME280;2978;42.012;24.880;2023-04-09T05:58:42;99232.53;;;10.76;85.64
5905;BME280;2978;42.012;24.880;2023-04-09T06:01:08;99226.00;;;10.82;85.29
5905;BME280;2978;42.012;24.880;2023-04-09T06:03:34;99229.22;;;10.74;84.75
5905;BME280;2978;42.012;24.880;2023-04-09T06:06:00;99239.72;;;10.77;85.54
5905;BME280;2978;42.012;24.880;2023-04-09T06:08:25;99238.56;;;10.73;85.03
5905;BME280;2978;42.012;24.880;2023-04-09T06:10:51;99242.97;;;10.74;85.44
5905;BME280;2978;42.012;24.880;2023-04-09T06:13:16;99232.91;;;10.90;84.84
5905;BME280;2978;42.012;24.880;2023-04-09T06:15:57;99231.59;;;11.02;84.24
5905;BME280;2978;42.012;24.880;2023-04-09T06:18:22;99241.00;;;11.06;83.84
5905;BME280;2978;42.012;24.880;2023-04-09T06:20:48;99241.63;;;11.23;83.09
5905;BME280;2978;42.012;24.880;2023-04-09T06:23:13;99233.22;;;11.50;82.10
5905;BME280;2978;42.012;24.880;2023-04-09T06:25:38;99241.78;;;11.59;81.79
5905;BME280;2978;42.012;24.880;2023-04-09T06:28:04;99239.38;;;11.72;80.36
5905;BME280;2978;42.012;24.880;2023-04-09T06:30:29;99247.16;;;11.90;79.76
5905;BME280;2978;42.012;24.880;2023-04-09T06:32:56;99237.78;;;11.96;79.03
5905;BME280;2978;42.012;24.880;2023-04-09T06:35:21;99251.28;;;11.93;78.66
5905;BME280;2978;42.012;24.880;2023-04-09T06:37:47;99245.81;;;12.08;78.60
5905;BME280;2978;42.012;24.880;2023-04-09T06:40:13;99251.63;;;12.06;78.58
5905;BME280;2978;42.012;24.880;2023-04-09T06:42:38;99256.31;;;12.21;77.87
5905;BME280;2978;42.012;24.880;2023-04-09T06:45:04;99253.03;;;12.39;77.06
5905;BME280;2978;42.012;24.880;2023-04-09T06:51:06;99259.63;;;12.23;77.45
5905;BME280;2978;42.012;24.880;2023-04-09T06:53:32;99259.06;;;12.26;77.23
5905;BME280;2978;42.012;24.880;2023-04-09T06:55:57;99260.75;;;12.42;76.97
5905;BME280;2978;42.012;24.880;2023-04-09T06:58:22;99258.28;;;12.66;76.13
5905;BME280;2978;42.012;24.880;2023-04-09T07:00:48;99259.63;;;12.83;75.34
5905;BME280;2978;42.012;24.880;2023-04-09T07:03:13;99241.94;;;12.94;75.03
5905;BME280;2978;42.012;24.880;2023-04-09T07:05:39;99255.16;;;13.32;73.94
5905;BME280;2978;42.012;24.880;2023-04-09T07:08:05;99251.19;;;13.58;72.22
5905;BME280;2978;42.012;24.880;2023-04-09T07:10:31;99250.56;;;13.77;71.54
5905;BME280;2978;42.012;24.880;2023-04-09T07:12:56;99246.34;;;13.89;70.24
5905;BME280;2978;42.012;24.880;2023-04-09T07:15:22;99250.47;;;13.92;69.52
5905;BME280;2978;42.012;24.880;2023-04-09T07:17:47;99249.78;;;14.15;68.37
5905;BME280;2978;42.012;24.880;2023-04-09T07:20:13;99255.13;;;14.01;67.60
5905;BME280;2978;42.012;24.880;2023-04-09T07:22:38;99263.31;;;14.16;67.43
5905;BME280;2978;42.012;24.880;2023-04-09T07:25:04;99251.69;;;14.19;67.72
5905;BME280;2978;42.012;24.880;2023-04-09T07:27:30;99250.25;;;14.32;67.00
5905;BME280;2978;42.012;24.880;2023-04-09T07:29:56;99247.78;;;14.30;67.09
5905;BME280;2978;42.012;24.880;2023-04-09T07:32:23;99250.00;;;14.28;67.26
5905;BME280;2978;42.012;24.880;2023-04-09T07:34:50;99239.81;;;14.19;67.20
5905;BME280;2978;42.012;24.880;2023-04-09T07:37:16;99248.66;;;14.21;67.04
5905;BME280;2978;42.012;24.880;2023-04-09T07:39:41;99252.25;;;14.16;67.79
5905;BME280;2978;42.012;24.880;2023-04-09T07:42:07;99246.56;;;14.03;68.24
5905;BME280;2978;42.012;24.880;2023-04-09T07:44:33;99244.94;;;13.92;68.83
5905;BME280;2978;42.012;24.880;2023-04-09T07:46:59;99251.91;;;13.79;69.11
5905;BME280;2978;42.012;24.880;2023-04-09T07:49:25;99246.19;;;13.66;69.93
5905;BME280;2978;42.012;24.880;2023-04-09T07:51:50;99255.72;;;13.24;71.44
5905;BME280;2978;42.012;24.880;2023-04-09T07:54:16;99251.88;;;13.20;71.56
5905;BME280;2978;42.012;24.880;2023-04-09T07:56:51;99251.88;;;13.15;71.90
5905;BME280;2978;42.012;24.880;2023-04-09T07:59:16;99261.28;;;13.19;71.48
5905;BME280;2978;42.012;24.880;2023-04-09T08:01:42;99264.59;;;13.21;71.68
5905;BME280;2978;42.012;24.880;2023-04-09T08:04:08;99257.94;;;13.22;71.51
5905;BME280;2978;42.012;24.880;2023-04-09T08:06:34;99266.22;;;13.27;71.70
5905;BME280;2978;42.012;24.880;2023-04-09T08:09:00;99266.22;;;13.27;71.74
5905;BME280;2978;42.012;24.880;2023-04-09T08:11:25;99277.47;;;13.51;70.75
5905;BME280;2978;42.012;24.880;2023-04-09T08:13:51;99267.78;;;13.53;70.51
5905;BME280;2978;42.012;24.880;2023-04-09T08:16:17;99269.97;;;13.56;70.38
5905;BME280;2978;42.012;24.880;2023-04-09T08:18:42;99272.66;;;13.77;70.05
5905;BME280;2978;42.012;24.880;2023-04-09T08:21:08;99277.00;;;13.98;69.25
5905;BME280;2978;42.012;24.880;2023-04-09T08:23:33;99270.88;;;14.01;68.73
5905;BME280;2978;42.012;24.880;2023-04-09T08:25:58;99272.50;;;14.12;68.59
5905;BME280;2978;42.012;24.880;2023-04-09T08:28:24;99270.09;;;14.44;67.93
5905;BME280;2978;42.012;24.880;2023-04-09T08:30:49;99281.84;;;14.59;67.00
5905;BME280;2978;42.012;24.880;2023-04-09T08:33:15;99282.66;;;14.65;66.56
5905;BME280;2978;42.012;24.880;2023-04-09T08:35:41;99273.94;;;14.82;66.19
5905;BME280;2978;42.012;24.880;2023-04-09T08:38:06;99272.22;;;14.86;66.19
5905;BME280;2978;42.012;24.880;2023-04-09T08:40:35;99271.03;;;14.97;65.36
5905;BME280;2978;42.012;24.880;2023-04-09T08:43:04;99281.53;;;15.28;64.42
5905;BME280;2978;42.012;24.880;2023-04-09T08:45:29;99279.69;;;15.47;63.14
5905;BME280;2978;42.012;24.880;2023-04-09T08:47:55;99288.72;;;15.58;62.86
5905;BME280;2978;42.012;24.880;2023-04-09T08:50:26;99282.41;;;15.52;61.60
5905;BME280;2978;42.012;24.880;2023-04-09T08:52:52;99274.78;;;15.39;62.58
5905;BME280;2978;42.012;24.880;2023-04-09T08:55:17;99287.66;;;15.25;63.25
5905;BME280;2978;42.012;24.880;2023-04-09T08:57:43;99280.38;;;15.06;63.60
5905;BME280;2978;42.012;24.880;2023-04-09T09:00:09;99281.81;;;14.64;65.26
5905;BME280;2978;42.012;24.880;2023-04-09T09:02:34;99275.38;;;14.74;65.26
5905;BME280;2978;42.012;24.880;2023-04-09T09:05:00;99269.41;;;14.62;65.90
5905;BME280;2978;42.012;24.880;2023-04-09T09:07:27;99265.59;;;14.87;65.38
5905;BME280;2978;42.012;24.880;2023-04-09T09:09:57;99274.06;;;15.24;64.49
5905;BME280;2978;42.012;24.880;2023-04-09T09:14:59;99267.03;;;15.36;63.03
5905;BME280;2978;42.012;24.880;2023-04-09T09:17:24;99264.78;;;15.15;63.62
5905;BME280;2978;42.012;24.880;2023-04-09T09:19:50;99270.16;;;15.30;63.24
5905;BME280;2978;42.012;24.880;2023-04-09T09:22:16;99261.88;;;15.53;61.53
5905;BME280;2978;42.012;24.880;2023-04-09T09:24:46;99265.22;;;15.50;62.05
5905;BME280;2978;42.012;24.880;2023-04-09T09:27:36;99254.81;;;15.42;61.55
5905;BME280;2978;42.012;24.880;2023-04-09T09:30:05;99252.19;;;15.74;61.27
5905;BME280;2978;42.012;24.880;2023-04-09T09:32:33;99247.09;;;15.82;60.44
5905;BME280;2978;42.012;24.880;2023-04-09T09:35:06;99243.69;;;15.90;59.52
5905;BME280;2978;42.012;24.880;2023-04-09T09:37:32;99243.81;;;15.79;60.31
5905;BME280;2978;42.012;24.880;2023-04-09T09:39:59;99245.38;;;15.67;60.41
5905;BME280;2978;42.012;24.880;2023-04-09T09:42:24;99242.75;;;15.52;60.70
5905;BME280;2978;42.012;24.880;2023-04-09T09:44:52;99243.22;;;15.35;60.86
5905;BME280;2978;42.012;24.880;2023-04-09T09:47:19;99240.97;;;15.42;60.63
5905;BME280;2978;42.012;24.880;2023-04-09T09:49:48;99235.06;;;15.20;60.05
5905;BME280;2978;42.012;24.880;2023-04-09T09:52:14;99239.00;;;14.86;62.00
5905;BME280;2978;42.012;24.880;2023-04-09T09:54:41;99230.56;;;14.72;62.48
5905;BME280;2978;42.012;24.880;2023-04-09T09:57:11;99226.66;;;14.44;63.37
5905;BME280;2978;42.012;24.880;2023-04-09T09:59:42;99222.22;;;14.48;63.27
5905;BME280;2978;42.012;24.880;2023-04-09T10:02:18;99224.13;;;14.48;63.30
5905;BME280;2978;42.012;24.880;2023-04-09T10:04:48;99221.97;;;14.45;63.21
5905;BME280;2978;42.012;24.880;2023-04-09T10:07:15;99223.63;;;14.41;62.22
5905;BME280;2978;42.012;24.880;2023-04-09T10:09:48;99204.13;;;14.27;63.12
5905;BME280;2978;42.012;24.880;2023-04-09T10:12:14;99213.66;;;14.45;63.57
5905;BME280;2978;42.012;24.880;2023-04-09T10:14:41;99204.72;;;14.53;63.47
5905;BME280;2978;42.012;24.880;2023-04-09T10:17:07;99207.88;;;14.70;63.09
5905;BME280;2978;42.012;24.880;2023-04-09T10:22:24;99204.56;;;14.73;62.35
5905;BME280;2978;42.012;24.880;2023-04-09T10:24:51;99200.75;;;14.93;61.71
5905;BME280;2978;42.012;24.880;2023-04-09T10:27:17;99197.00;;;15.07;60.68
5905;BME280;2978;42.012;24.880;2023-04-09T10:29:43;99187.06;;;15.06;61.69
5905;BME280;2978;42.012;24.880;2023-04-09T10:32:10;99179.53;;;15.07;61.94
5905;BME280;2978;42.012;24.880;2023-04-09T10:34:40;99188.63;;;15.12;61.23
5905;BME280;2978;42.012;24.880;2023-04-09T10:37:08;99186.16;;;15.11;58.31
5905;BME280;2978;42.012;24.880;2023-04-09T10:39:38;99193.94;;;15.09;58.05
5905;BME280;2978;42.012;24.880;2023-04-09T10:42:38;99178.78;;;15.25;58.03
5905;BME280;2978;42.012;24.880;2023-04-09T10:45:13;99181.03;;;15.23;57.75
5905;BME280;2978;42.012;24.880;2023-04-09T10:47:40;99173.56;;;15.23;54.99
5905;BME280;2978;42.012;24.880;2023-04-09T10:50:20;99160.00;;;15.45;55.06
5905;BME280;2978;42.012;24.880;2023-04-09T10:52:50;99172.72;;;15.46;53.17
5905;BME280;2978;42.012;24.880;2023-04-09T10:55:37;99154.47;;;15.22;50.88
5905;BME280;2978;42.012;24.880;2023-04-09T10:58:10;99152.50;;;15.22;52.29
5905;BME280;2978;42.012;24.880;2023-04-09T11:00:41;99151.25;;;15.33;52.05
5905;BME280;2978;42.012;24.880;2023-04-09T11:05:46;99135.41;;;15.39;50.67
5905;BME280;2978;42.012;24.880;2023-04-09T11:08:14;99131.44;;;15.45;50.01
5905;BME280;2978;42.012;24.880;2023-04-09T11:10:42;99129.28;;;15.42;50.23
5905;BME280;2978;42.012;24.880;2023-04-09T11:13:16;99125.56;;;15.28;49.00
5905;BME280;2978;42.012;24.880;2023-04-09T11:15:44;99115.47;;;15.13;50.27
5905;BME280;2978;42.012;24.880;2023-04-09T11:18:34;99110.00;;;15.32;48.98
5905;BME280;2978;42.012;24.880;2023-04-09T11:21:01;99115.66;;;15.45;45.61
5905;BME280;2978;42.012;24.880;2023-04-09T11:23:28;99097.47;;;15.34;46.24
5905;BME280;2978;42.012;24.880;2023-04-09T11:25:54;99098.56;;;15.38;47.81
5905;BME280;2978;42.012;24.880;2023-04-09T11:28:22;99099.38;;;15.39;47.32
5905;BME280;2978;42.012;24.880;2023-04-09T11:30:51;99086.78;;;15.51;48.21
5905;BME280;2978;42.012;24.880;2023-04-09T11:33:17;99091.06;;;15.39;47.65
5905;BME280;2978;42.012;24.880;2023-04-09T11:35:42;99091.94;;;15.34;46.13
5905;BME280;2978;42.012;24.880;2023-04-09T11:38:09;99091.25;;;15.24;47.39
5905;BME280;2978;42.012;24.880;2023-04-09T11:40:35;99082.22;;;15.18;48.35
5905;BME280;2978;42.012;24.880;2023-04-09T11:43:01;99075.09;;;15.31;48.93
5905;BME280;2978;42.012;24.880;2023-04-09T11:45:28;99078.53;;;15.23;48.78
5905;BME280;2978;42.012;24.880;2023-04-09T11:47:55;99073.22;;;15.26;46.18
5905;BME280;2978;42.012;24.880;2023-04-09T11:50:21;99078.16;;;15.29;45.81
5905;BME280;2978;42.012;24.880;2023-04-09T11:52:47;99053.53;;;15.28;45.84
5905;BME280;2978;42.012;24.880;2023-04-09T11:55:32;99067.22;;;15.43;46.51
5905;BME280;2978;42.012;24.880;2023-04-09T11:57:59;99059.88;;;15.52;45.94
5905;BME280;2978;42.012;24.880;2023-04-09T12:00:25;99057.84;;;15.57;44.84
5905;BME280;2978;42.012;24.880;2023-04-09T12:03:01;99056.13;;;15.43;42.59
5905;BME280;2978;42.012;24.880;2023-04-09T12:05:29;99050.13;;;15.36;43.61
5905;BME280;2978;42.012;24.880;2023-04-09T12:08:06;99060.38;;;15.35;45.41
5905;BME280;2978;42.012;24.880;2023-04-09T12:10:37;99044.34;;;15.32;43.14
5905;BME280;2978;42.012;24.880;2023-04-09T12:13:07;99042.06;;;15.34;45.24
5905;BME280;2978;42.012;24.880;2023-04-09T12:15:35;99047.38;;;15.54;45.74
5905;BME280;2978;42.012;24.880;2023-04-09T12:18:03;99037.69;;;15.52;42.25
5905;BME280;2978;42.012;24.880;2023-04-09T12:20:32;99056.22;;;15.56;42.23
5905;BME280;2978;42.012;24.880;2023-04-09T12:22:59;99042.56;;;15.41;43.37
5905;BME280;2978;42.012;24.880;2023-04-09T12:25:27;99038.53;;;15.52;43.75
5905;BME280;2978;42.012;24.880;2023-04-09T12:27:54;99042.03;;;15.58;43.12
5905;BME280;2978;42.012;24.880;2023-04-09T12:30:20;99038.06;;;15.83;41.47
5905;BME280;2978;42.012;24.880;2023-04-09T12:32:46;99039.31;;;15.71;41.19
5905;BME280;2978;42.012;24.880;2023-04-09T12:35:12;99036.47;;;15.76;41.41
5905;BME280;2978;42.012;24.880;2023-04-09T12:37:38;99042.34;;;15.56;42.47
5905;BME280;2978;42.012;24.880;2023-04-09T12:40:04;99024.38;;;15.72;42.25
5905;BME280;2978;42.012;24.880;2023-04-09T12:42:29;99022.09;;;15.74;41.96
5905;BME280;2978;42.012;24.880;2023-04-09T12:44:55;99024.28;;;15.77;41.50
5905;BME280;2978;42.012;24.880;2023-04-09T12:47:20;99020.38;;;15.78;41.93
5905;BME280;2978;42.012;24.880;2023-04-09T12:49:45;99011.78;;;15.94;41.98
5905;BME280;2978;42.012;24.880;2023-04-09T12:52:11;99016.84;;;16.05;41.00
5905;BME280;2978;42.012;24.880;2023-04-09T12:54:37;99016.56;;;16.07;41.12
5905;BME280;2978;42.012;24.880;2023-04-09T12:57:04;99010.72;;;16.22;40.75
5905;BME280;2978;42.012;24.880;2023-04-09T12:59:30;99008.38;;;16.42;39.51
5905;BME280;2978;42.012;24.880;2023-04-09T13:01:55;99000.38;;;16.41;40.57
5905;BME280;2978;42.012;24.880;2023-04-09T13:04:20;98995.44;;;16.24;41.84
5905;BME280;2978;42.012;24.880;2023-04-09T13:06:46;98995.41;;;16.11;39.86
5905;BME280;2978;42.012;24.880;2023-04-09T13:09:12;98998.22;;;15.92;39.66
5905;BME280;2978;42.012;24.880;2023-04-09T13:11:38;98998.97;;;16.11;40.65
5905;BME280;2978;42.012;24.880;2023-04-09T13:14:04;98990.00;;;16.33;41.34
5905;BME280;2978;42.012;24.880;2023-04-09T13:16:29;98987.56;;;16.58;42.10
5905;BME280;2978;42.012;24.880;2023-04-09T13:18:55;98985.59;;;16.45;41.34
5905;BME280;2978;42.012;24.880;2023-04-09T13:21:21;98980.28;;;16.49;41.17
5905;BME280;2978;42.012;24.880;2023-04-09T13:23:46;98975.44;;;16.54;40.42
5905;BME280;2978;42.012;24.880;2023-04-09T13:26:12;98983.97;;;16.58;39.83
5905;BME280;2978;42.012;24.880;2023-04-09T13:28:37;98973.38;;;16.46;41.67
5905;BME280;2978;42.012;24.880;2023-04-09T13:31:03;98974.81;;;16.57;42.36
5905;BME280;2978;42.012;24.880;2023-04-09T13:33:29;98975.03;;;16.47;42.42